createdAt,value
2019-02-25T00:01:05.169Z,99904.86
2019-02-25T00:03:37.194Z,99899.50
2019-02-25T00:06:09.236Z,99898.62
2019-02-25T00:08:41.932Z,99910.14
2019-02-25T00:11:14.010Z,99908.87
2019-02-25T00:13:45.935Z,99905.26
2019-02-25T00:16:17.862Z,99904.26
2019-02-25T00:18:49.848Z,99905.03
2019-02-25T00:21:22.007Z,99909.17
2019-02-25T00:23:53.927Z,99909.16
2019-02-25T00:26:25.833Z,99910.05
2019-02-25T00:28:57.770Z,99915.36
2019-02-25T00:31:29.709Z,99916.05
2019-02-25T00:34:01.648Z,99918.03
2019-02-25T00:36:33.588Z,99920.30
2019-02-25T00:39:07.702Z,99932.69
2019-02-25T00:41:39.956Z,99929.94
2019-02-25T00:44:11.932Z,99926.28
2019-02-25T00:46:43.869Z,99935.32
2019-02-25T00:49:16.047Z,99944.65
2019-02-25T00:51:47.948Z,99944.30
2019-02-25T00:54:20.009Z,99943.08
2019-02-25T00:56:52.094Z,99952.73
2019-02-25T00:59:24.121Z,99962.45
2019-02-25T01:01:56.214Z,99953.61
2019-02-25T01:04:28.221Z,99958.89
2019-02-25T01:07:01.294Z,99945.09
2019-02-25T01:09:33.221Z,99946.22
2019-02-25T01:12:05.159Z,99949.11
2019-02-25T01:14:37.098Z,99943.41
2019-02-25T01:17:09.039Z,99946.38
2019-02-25T01:19:41.116Z,99951.66
2019-02-25T01:22:13.022Z,99957.23
2019-02-25T01:24:44.960Z,99956.60
2019-02-25T01:27:16.924Z,99960.19
2019-02-25T01:29:48.826Z,99964.98
2019-02-25T01:32:20.759Z,99962.36
2019-02-25T01:34:52.801Z,99963.75
2019-02-25T01:37:24.740Z,99960.59
2019-02-25T01:39:57.060Z,99950.99
2019-02-25T01:42:29.141Z,99952.77
2019-02-25T01:45:01.088Z,99942.97
2019-02-25T01:47:33.164Z,99941.06
2019-02-25T01:50:05.755Z,99929.10
2019-02-25T01:52:37.801Z,99930.84
2019-02-25T01:55:10.386Z,99928.20
2019-02-25T01:57:42.451Z,99924.43
2019-02-25T02:00:15.963Z,99920.53
2019-02-25T02:02:47.896Z,99925.45
2019-02-25T02:05:19.842Z,99927.65
2019-02-25T02:07:51.885Z,99928.19
2019-02-25T02:10:24.067Z,99926.55
2019-02-25T02:12:56.279Z,99928.80
2019-02-25T02:15:28.410Z,99928.80
2019-02-25T02:18:00.424Z,99945.16
2019-02-25T02:20:32.525Z,99948.22
2019-02-25T02:23:04.725Z,99944.22
2019-02-25T02:25:36.818Z,99947.33
2019-02-25T02:28:08.832Z,99944.14
2019-02-25T02:30:40.855Z,99942.63
2019-02-25T02:33:12.950Z,99940.80
2019-02-25T02:35:44.973Z,99937.45
2019-02-25T02:38:17.080Z,99934.90
2019-02-25T02:40:49.171Z,99936.57
2019-02-25T02:43:21.197Z,99929.59
2019-02-25T02:46:10.731Z,99926.77
2019-02-25T02:48:51.397Z,99927.86
2019-02-25T02:51:23.499Z,99923.89
2019-02-25T02:53:55.601Z,99923.81
2019-02-25T02:56:27.695Z,99932.25
2019-02-25T02:58:59.800Z,99919.45
2019-02-25T03:01:31.818Z,99914.08
2019-02-25T03:04:03.912Z,99909.56
2019-02-25T03:06:36.009Z,99909.72
2019-02-25T03:09:10.868Z,99905.34
2019-02-25T03:11:42.959Z,99909.69
2019-02-25T03:14:14.988Z,99919.86
2019-02-25T03:16:47.069Z,99923.32
2019-02-25T03:19:19.086Z,99913.33
2019-02-25T03:21:51.114Z,99915.82
2019-02-25T03:24:23.207Z,99918.91
2019-02-25T03:26:55.307Z,99920.97
2019-02-25T03:29:27.319Z,99920.92
2019-02-25T03:31:59.420Z,99923.87
2019-02-25T03:34:31.515Z,99920.48
2019-02-25T03:37:03.864Z,99925.83
2019-02-25T03:39:35.954Z,99939.64
2019-02-25T03:42:07.984Z,99930.90
2019-02-25T03:44:40.183Z,99921.28
2019-02-25T03:47:12.281Z,99920.74
2019-02-25T03:49:44.378Z,99915.80
2019-02-25T03:52:16.402Z,99907.28
2019-02-25T03:54:48.500Z,99912.89
2019-02-25T03:57:20.695Z,99912.42
2019-02-25T03:59:52.799Z,99916.29
2019-02-25T04:02:25.098Z,99909.33
2019-02-25T04:04:57.124Z,99915.30
2019-02-25T04:07:30.554Z,99918.69
2019-02-25T04:10:02.643Z,99923.89
2019-02-25T04:12:35.913Z,99931.57
2019-02-25T04:15:11.556Z,99932.25
2019-02-25T04:17:43.634Z,99927.32
2019-02-25T04:20:16.492Z,99922.43
2019-02-25T04:22:48.603Z,99929.72
2019-02-25T04:25:20.704Z,99930.39
2019-02-25T04:27:52.734Z,99932.00
2019-02-25T04:30:24.828Z,99939.84
2019-02-25T04:32:56.870Z,99944.47
2019-02-25T04:35:28.970Z,99941.48
2019-02-25T04:38:02.969Z,99939.28
2019-02-25T04:40:34.796Z,99936.22
2019-02-25T04:43:06.891Z,99940.80
2019-02-25T04:45:39.178Z,99947.58
2019-02-25T04:48:11.547Z,99945.05
2019-02-25T04:50:43.643Z,99951.02
2019-02-25T04:53:15.798Z,99950.50
2019-02-25T04:55:48.232Z,99944.27
2019-02-25T04:58:20.313Z,99929.50
2019-02-25T05:00:52.460Z,99926.41
2019-02-25T05:03:24.498Z,99917.50
2019-02-25T05:05:56.660Z,99911.91
2019-02-25T05:08:28.793Z,99910.31
2019-02-25T05:11:00.886Z,99917.31
2019-02-25T05:13:33.011Z,99917.98
2019-02-25T05:16:05.045Z,99917.83
2019-02-25T05:18:37.144Z,99907.41
2019-02-25T05:21:09.241Z,99905.59
2019-02-25T05:23:41.315Z,99905.19
2019-02-25T05:26:13.332Z,99913.12
2019-02-25T05:28:51.925Z,99900.95
2019-02-25T05:31:19.267Z,99899.26
2019-02-25T05:33:51.298Z,99900.14
2019-02-25T05:36:23.407Z,99900.80
2019-02-25T05:38:55.517Z,99910.64
2019-02-25T05:41:27.608Z,99906.75
2019-02-25T05:43:59.708Z,99906.36
2019-02-25T05:46:31.719Z,99904.94
2019-02-25T05:49:03.749Z,99916.95
2019-02-25T05:51:35.874Z,99921.62
2019-02-25T05:54:10.738Z,99920.67
2019-02-25T05:56:43.771Z,99919.36
2019-02-25T05:59:15.937Z,99915.93
2019-02-25T06:01:48.045Z,99914.51
2019-02-25T06:04:20.057Z,99909.67
2019-02-25T06:06:52.083Z,99921.11
2019-02-25T06:09:24.102Z,99925.16
2019-02-25T06:11:56.203Z,99932.12
2019-02-25T06:14:28.245Z,99938.64
2019-02-25T06:17:00.363Z,99938.95
2019-02-25T06:19:32.476Z,99940.29
2019-02-25T06:22:04.578Z,99938.08
2019-02-25T06:24:36.685Z,99935.56
2019-02-25T06:27:09.293Z,99941.20
2019-02-25T06:29:41.320Z,99939.58
2019-02-25T06:32:13.367Z,99935.88
2019-02-25T06:34:45.449Z,99932.59
2019-02-25T06:37:17.579Z,99936.18
2019-02-25T06:39:49.691Z,99945.25
2019-02-25T06:42:21.786Z,99946.60
2019-02-25T06:44:53.871Z,99949.64
2019-02-25T06:47:25.888Z,99947.44
2019-02-25T06:49:57.975Z,99948.05
2019-02-25T06:52:30.002Z,99938.41
2019-02-25T06:55:02.020Z,99940.17
2019-02-25T06:57:34.149Z,99934.38
2019-02-25T07:00:08.950Z,99929.27
2019-02-25T07:02:41.051Z,99932.25
2019-02-25T07:05:32.132Z,99935.27
2019-02-25T07:08:16.730Z,99927.39
2019-02-25T07:11:12.288Z,99932.97
2019-02-25T07:14:11.905Z,99942.25
2019-02-25T07:17:02.678Z,99942.48
2019-02-25T07:20:11.626Z,99942.73
2019-02-25T07:23:05.144Z,99939.91
2019-02-25T07:25:52.983Z,99938.61
2019-02-25T07:28:42.622Z,99943.95
2019-02-25T07:31:37.886Z,99937.56
2019-02-25T07:34:19.404Z,99929.08
2019-02-25T07:37:20.445Z,99919.27
2019-02-25T07:40:17.063Z,99901.04
2019-02-25T07:43:15.420Z,99890.40
2019-02-25T07:46:06.450Z,99887.72
2019-02-25T07:49:06.444Z,99882.62
2019-02-25T07:51:54.227Z,99885.25
2019-02-25T07:54:57.225Z,99891.25
2019-02-25T07:57:51.250Z,99885.02
2019-02-25T08:00:42.100Z,99892.17
2019-02-25T08:03:31.349Z,99889.45
2019-02-25T08:06:34.328Z,99899.80
2019-02-25T08:09:20.153Z,99908.48
2019-02-25T08:12:14.008Z,99910.72
2019-02-25T08:15:19.936Z,99920.30
2019-02-25T08:18:25.608Z,99916.84
2019-02-25T08:21:10.322Z,99913.64
2019-02-25T08:24:03.830Z,99911.53
2019-02-25T08:26:47.505Z,99913.65
2019-02-25T08:29:30.173Z,99905.72
2019-02-25T08:32:14.606Z,99884.39
2019-02-25T08:35:10.042Z,99881.38
2019-02-25T08:38:11.989Z,99897.70
2019-02-25T08:41:31.148Z,99901.01
2019-02-25T08:44:21.996Z,99902.90
2019-02-25T08:47:16.532Z,99902.34
2019-02-25T08:49:51.405Z,99897.72
2019-02-25T08:52:23.659Z,99874.59
2019-02-25T08:54:55.677Z,99872.06
2019-02-25T08:57:27.779Z,99874.29
2019-02-25T08:59:59.879Z,99874.75
2019-02-25T09:02:31.872Z,99864.95
2019-02-25T09:05:07.746Z,99866.56
2019-02-25T09:07:39.724Z,99860.94
2019-02-25T09:10:13.532Z,99851.91
2019-02-25T09:12:45.637Z,99854.31
2019-02-25T09:15:17.672Z,99846.99
2019-02-25T09:17:46.904Z,99843.92
2019-02-25T09:20:19.010Z,99846.97
2019-02-25T09:22:51.060Z,99835.14
2019-02-25T09:25:23.066Z,99835.45
2019-02-25T09:27:55.099Z,99844.87
2019-02-25T09:30:27.151Z,99842.05
2019-02-25T09:32:59.200Z,99851.41
2019-02-25T09:35:31.293Z,99849.78
2019-02-25T09:38:03.267Z,99852.52
2019-02-25T09:40:35.356Z,99854.00
2019-02-25T09:43:07.499Z,99855.30
2019-02-25T09:45:39.607Z,99855.68
2019-02-25T09:48:11.577Z,99848.64
2019-02-25T09:50:43.597Z,99849.00
2019-02-25T09:53:15.642Z,99844.89
2019-02-25T09:55:47.751Z,99847.09
2019-02-25T09:58:20.072Z,99842.28
2019-02-25T10:00:52.164Z,99836.94
2019-02-25T10:03:24.222Z,99834.50
2019-02-25T10:05:56.361Z,99824.08
2019-02-25T10:08:28.409Z,99822.19
2019-02-25T10:11:00.500Z,99822.29
2019-02-25T10:13:32.556Z,99819.02
2019-02-25T10:16:04.567Z,99816.08
2019-02-25T10:18:36.613Z,99823.96
2019-02-25T10:21:08.618Z,99821.31
2019-02-25T10:23:40.623Z,99815.06
2019-02-25T10:26:12.693Z,99813.31
2019-02-25T10:28:44.658Z,99818.56
2019-02-25T10:31:17.525Z,99822.43
2019-02-25T10:33:50.845Z,99818.02
2019-02-25T10:36:22.985Z,99817.77
2019-02-25T10:38:55.045Z,99811.47
2019-02-25T10:41:27.857Z,99814.03
2019-02-25T10:44:00.710Z,99816.50
2019-02-25T10:46:33.650Z,99818.04
2019-02-25T10:49:11.531Z,99814.28
2019-02-25T10:51:41.061Z,99813.47
2019-02-25T10:54:14.407Z,99827.42
2019-02-25T10:57:00.035Z,99826.19
2019-02-25T10:59:34.447Z,99828.48
2019-02-25T11:02:06.522Z,99828.52
2019-02-25T11:04:38.528Z,99826.36
2019-02-25T11:07:10.768Z,99826.30
2019-02-25T11:09:55.517Z,99814.67
2019-02-25T11:12:28.428Z,99814.51
2019-02-25T11:15:01.534Z,99810.11
2019-02-25T11:17:33.626Z,99798.13
2019-02-25T11:20:08.087Z,99795.70
2019-02-25T11:22:41.997Z,99784.00
2019-02-25T11:25:14.445Z,99778.80
2019-02-25T11:27:46.561Z,99775.66
2019-02-25T11:30:19.473Z,99776.95
2019-02-25T11:32:53.942Z,99769.47
2019-02-25T11:35:26.177Z,99763.56
2019-02-25T11:37:59.636Z,99757.35
2019-02-25T11:40:33.677Z,99750.58
2019-02-25T11:43:05.758Z,99748.47
2019-02-25T11:45:38.213Z,99745.91
2019-02-25T11:48:10.495Z,99741.17
2019-02-25T11:50:42.472Z,99746.76
2019-02-25T11:53:14.565Z,99740.19
2019-02-25T11:55:46.614Z,99744.19
2019-02-25T11:58:18.619Z,99746.02
2019-02-25T12:00:50.677Z,99742.98
2019-02-25T12:03:22.773Z,99735.88
2019-02-25T12:05:54.820Z,99732.92
2019-02-25T12:08:26.819Z,99733.03
2019-02-25T12:10:58.787Z,99726.52
2019-02-25T12:13:31.112Z,99725.09
2019-02-25T12:16:03.214Z,99723.04
2019-02-25T12:18:35.568Z,99721.98
2019-02-25T12:21:07.924Z,99724.53
2019-02-25T12:23:40.009Z,99724.98
2019-02-25T12:26:12.162Z,99709.27
2019-02-25T12:28:44.462Z,99704.19
2019-02-25T12:31:16.747Z,99703.97
2019-02-25T12:33:48.968Z,99699.92
2019-02-25T12:36:21.119Z,99693.44
2019-02-25T12:38:53.302Z,99693.89
2019-02-25T12:41:27.237Z,99691.01
2019-02-25T12:43:59.290Z,99693.56
2019-02-25T12:46:31.564Z,99688.23
2019-02-25T12:49:03.781Z,99677.56
2019-02-25T12:51:35.961Z,99679.19
2019-02-25T12:54:08.099Z,99672.06
2019-02-25T12:56:40.134Z,99659.98
2019-02-25T12:59:12.227Z,99658.86
2019-02-25T13:01:44.281Z,99655.70
2019-02-25T13:04:16.378Z,99647.92
2019-02-25T13:06:48.432Z,99649.00
2019-02-25T13:09:20.645Z,99642.75
2019-02-25T13:11:52.818Z,99637.46
2019-02-25T13:14:25.032Z,99638.34
2019-02-25T13:16:57.114Z,99636.67
2019-02-25T13:19:29.209Z,99630.94
2019-02-25T13:22:01.257Z,99625.90
2019-02-25T13:24:35.145Z,99618.36
2019-02-25T13:27:08.468Z,99606.05
2019-02-25T13:29:40.910Z,99604.72
2019-02-25T13:32:12.961Z,99602.33
2019-02-25T13:34:45.053Z,99594.53
2019-02-25T13:37:17.100Z,99592.78
2019-02-25T13:39:49.195Z,99583.88
2019-02-25T13:42:21.288Z,99579.27
2019-02-25T13:44:53.384Z,99574.78
2019-02-25T13:47:25.431Z,99568.98
2019-02-25T13:49:59.067Z,99562.46
2019-02-25T13:52:31.109Z,99562.12
2019-02-25T13:55:03.202Z,99558.37
2019-02-25T13:57:35.253Z,99561.23
2019-02-25T14:00:18.209Z,99557.91
2019-02-25T14:02:50.474Z,99554.14
2019-02-25T14:05:22.770Z,99557.70
2019-02-25T14:07:54.917Z,99554.21
2019-02-25T14:10:27.006Z,99557.39
2019-02-25T14:12:59.063Z,99551.66
2019-02-25T14:15:31.206Z,99557.55
2019-02-25T14:18:03.360Z,99562.02
2019-02-25T14:20:35.559Z,99562.64
2019-02-25T14:23:07.710Z,99561.65
2019-02-25T14:25:41.562Z,99559.03
2019-02-25T14:28:13.856Z,99557.56
2019-02-25T14:30:46.065Z,99556.70
2019-02-25T14:33:18.437Z,99545.28
2019-02-25T14:35:53.106Z,99545.15
2019-02-25T14:38:25.307Z,99550.79
2019-02-25T14:40:58.202Z,99553.41
2019-02-25T14:43:30.254Z,99546.84
2019-02-25T14:46:04.815Z,99547.31
2019-02-25T14:48:36.793Z,99552.16
2019-02-25T14:51:08.913Z,99557.20
2019-02-25T14:53:42.266Z,99556.47
2019-02-25T14:56:14.768Z,99557.43
2019-02-25T14:58:47.763Z,99558.95
2019-02-25T15:01:21.004Z,99548.20
2019-02-25T15:03:53.610Z,99552.10
2019-02-25T15:06:28.015Z,99548.75
2019-02-25T15:09:01.483Z,99544.13
2019-02-25T15:11:33.507Z,99546.02
2019-02-25T15:14:05.943Z,99538.21
2019-02-25T15:16:39.482Z,99537.48
2019-02-25T15:19:13.375Z,99538.58
2019-02-25T15:21:47.452Z,99541.78
2019-02-25T15:24:19.156Z,99549.50
2019-02-25T15:26:51.448Z,99542.45
2019-02-25T15:29:23.508Z,99543.37
2019-02-25T15:31:57.017Z,99541.55
2019-02-25T15:34:29.268Z,99545.64
2019-02-25T15:37:02.675Z,99544.93
2019-02-25T15:39:35.383Z,99543.53
2019-02-25T15:42:07.577Z,99544.55
2019-02-25T15:44:40.326Z,99544.16
2019-02-25T15:47:15.089Z,99540.17
2019-02-25T15:49:48.017Z,99543.03
2019-02-25T15:52:21.071Z,99542.11
2019-02-25T15:54:53.784Z,99554.82
2019-02-25T15:57:26.467Z,99555.55
2019-02-25T15:59:59.917Z,99553.81
2019-02-25T16:02:32.010Z,99556.55
2019-02-25T16:05:05.862Z,99563.38
2019-02-25T16:07:40.124Z,99561.83
2019-02-25T16:10:14.180Z,99564.84
2019-02-25T16:12:47.885Z,99568.45
2019-02-25T16:15:20.573Z,99566.42
2019-02-25T16:17:53.195Z,99564.11
2019-02-25T16:20:25.735Z,99573.30
2019-02-25T16:23:00.187Z,99569.70
2019-02-25T16:25:32.172Z,99574.91
2019-02-25T16:28:06.068Z,99581.27
2019-02-25T16:30:40.492Z,99576.95
2019-02-25T16:33:14.327Z,99584.34
2019-02-25T16:35:46.324Z,99594.09
2019-02-25T16:38:21.068Z,99587.92
2019-02-25T16:40:54.662Z,99582.84
2019-02-25T16:43:25.957Z,99584.86
2019-02-25T16:45:59.462Z,99588.47
2019-02-25T16:48:32.609Z,99588.63
2019-02-25T16:51:07.150Z,99582.60
2019-02-25T16:53:39.412Z,99588.16
2019-02-25T16:56:14.187Z,99594.98
2019-02-25T16:58:47.692Z,99599.16
2019-02-25T17:01:20.042Z,99598.71
2019-02-25T17:03:52.247Z,99597.03
2019-02-25T17:06:25.858Z,99598.53
2019-02-25T17:08:57.999Z,99602.06
2019-02-25T17:11:30.189Z,99610.03
2019-02-25T17:14:03.780Z,99608.27
2019-02-25T17:16:35.951Z,99604.84
2019-02-25T17:19:08.058Z,99601.35
2019-02-25T17:21:43.079Z,99607.55
2019-02-25T17:24:14.073Z,99609.28
2019-02-25T17:26:46.149Z,99605.18
2019-02-25T17:29:18.239Z,99604.74
2019-02-25T17:31:50.302Z,99603.66
2019-02-25T17:34:22.269Z,99599.23
2019-02-25T17:36:54.664Z,99602.34
2019-02-25T17:39:26.680Z,99605.95
2019-02-25T17:41:59.427Z,99601.26
2019-02-25T17:44:34.308Z,99601.67
2019-02-25T17:47:06.714Z,99598.44
2019-02-25T17:49:40.609Z,99608.36
2019-02-25T17:52:14.185Z,99607.47
2019-02-25T17:54:46.973Z,99607.36
2019-02-25T17:57:19.254Z,99615.48
2019-02-25T17:59:52.723Z,99618.17
2019-02-25T18:02:24.823Z,99615.09
2019-02-25T18:04:57.478Z,99604.81
2019-02-25T18:07:30.072Z,99604.39
2019-02-25T18:10:03.445Z,99607.80
2019-02-25T18:12:39.862Z,99613.32
2019-02-25T18:15:17.939Z,99618.25
2019-02-25T18:17:51.474Z,99621.57
2019-02-25T18:20:23.888Z,99624.61
2019-02-25T18:22:55.925Z,99624.23
2019-02-25T18:25:28.133Z,99625.34
2019-02-25T18:28:00.071Z,99620.75
2019-02-25T18:30:33.359Z,99620.58
2019-02-25T18:33:06.127Z,99625.34
2019-02-25T18:35:40.994Z,99625.05
2019-02-25T18:38:11.979Z,99624.19
2019-02-25T18:40:45.833Z,99629.92
2019-02-25T18:43:17.749Z,99630.16
2019-02-25T18:45:49.712Z,99631.06
2019-02-25T18:48:23.226Z,99629.77
2019-02-25T18:50:58.514Z,99638.58
2019-02-25T18:53:29.408Z,99632.93
2019-02-25T18:56:01.454Z,99633.48
2019-02-25T18:58:35.284Z,99632.52
2019-02-25T19:01:09.739Z,99637.66
2019-02-25T19:03:41.448Z,99640.06
2019-02-25T19:06:14.938Z,99637.14
2019-02-25T19:08:49.365Z,99639.14
2019-02-25T19:11:23.582Z,99641.25
2019-02-25T19:13:56.730Z,99642.70
2019-02-25T19:16:29.272Z,99641.59
2019-02-25T19:19:03.878Z,99638.17
2019-02-25T19:21:35.129Z,99643.41
2019-02-25T19:24:07.665Z,99644.78
2019-02-25T19:26:42.455Z,99644.92
2019-02-25T19:29:15.246Z,99648.72
2019-02-25T19:31:48.066Z,99647.09
2019-02-25T19:34:20.056Z,99650.98
2019-02-25T19:36:52.085Z,99649.22
2019-02-25T19:39:24.063Z,99649.48
2019-02-25T19:41:56.777Z,99642.31
2019-02-25T19:44:31.878Z,99644.91
2019-02-25T19:47:03.698Z,99637.03
2019-02-25T19:49:36.787Z,99635.36
2019-02-25T19:52:09.729Z,99639.75
2019-02-25T19:54:43.258Z,99650.47
2019-02-25T19:57:16.595Z,99645.83
2019-02-25T19:59:50.700Z,99644.89
2019-02-25T20:02:24.780Z,99647.77
2019-02-25T20:04:57.177Z,99645.05
2019-02-25T20:07:30.899Z,99648.94
2019-02-25T20:10:02.959Z,99645.53
2019-02-25T20:12:35.681Z,99648.89
2019-02-25T20:15:11.740Z,99654.38
2019-02-25T20:17:46.745Z,99658.68
2019-02-25T20:20:18.910Z,99650.27
2019-02-25T20:22:50.949Z,99651.23
2019-02-25T20:25:24.472Z,99652.09
2019-02-25T20:27:57.580Z,99654.66
2019-02-25T20:30:30.650Z,99645.41
2019-02-25T20:33:03.805Z,99645.20
2019-02-25T20:35:36.242Z,99643.81
2019-02-25T20:38:08.388Z,99641.82
2019-02-25T20:40:40.321Z,99639.53
2019-02-25T20:43:12.271Z,99642.56
2019-02-25T20:45:44.391Z,99642.69
2019-02-25T20:48:16.425Z,99630.34
2019-02-25T20:50:48.373Z,99630.02
2019-02-25T20:53:20.318Z,99631.77
2019-02-25T20:55:54.513Z,99636.70
2019-02-25T20:58:26.195Z,99641.34
2019-02-25T21:00:58.157Z,99637.44
2019-02-25T21:03:30.188Z,99637.81
2019-02-25T21:06:02.706Z,99638.30
2019-02-25T21:08:35.349Z,99636.91
2019-02-25T21:11:11.085Z,99631.34
2019-02-25T21:13:42.531Z,99638.55
2019-02-25T21:16:16.163Z,99645.48
2019-02-25T21:18:48.784Z,99641.98
2019-02-25T21:21:21.804Z,99645.14
2019-02-25T21:23:53.747Z,99645.96
2019-02-25T21:26:29.292Z,99648.91
2019-02-25T21:29:00.273Z,99655.26
2019-02-25T21:31:32.997Z,99653.75
2019-02-25T21:34:05.236Z,99659.80
2019-02-25T21:36:38.159Z,99661.23
2019-02-25T21:39:12.842Z,99664.13
2019-02-25T21:41:45.850Z,99669.77
2019-02-25T21:44:19.458Z,99669.81
2019-02-25T21:46:53.798Z,99664.38
2019-02-25T21:49:27.143Z,99665.20
2019-02-25T21:52:00.248Z,99662.59
2019-02-25T21:54:32.716Z,99664.02
2019-02-25T21:57:05.463Z,99666.11
2019-02-25T21:59:38.731Z,99667.52
2019-02-25T22:02:11.933Z,99660.58
2019-02-25T22:04:45.402Z,99659.02
2019-02-25T22:07:24.118Z,99665.92
2019-02-25T22:09:51.252Z,99663.47
2019-02-25T22:12:23.179Z,99666.64
2019-02-25T22:14:55.099Z,99660.56
2019-02-25T22:17:27.026Z,99666.92
2019-02-25T22:19:58.966Z,99669.95
2019-02-25T22:22:31.601Z,99663.17
2019-02-25T22:25:06.667Z,99657.54
2019-02-25T22:27:39.093Z,99665.70
2019-02-25T22:30:15.095Z,99659.34
2019-02-25T22:32:46.990Z,99654.59
2019-02-25T22:35:18.932Z,99657.87
2019-02-25T22:37:52.691Z,99652.27
2019-02-25T22:40:24.458Z,99644.30
2019-02-25T22:42:58.405Z,99644.05
2019-02-25T22:45:31.469Z,99648.73
2019-02-25T22:48:03.670Z,99652.44
2019-02-25T22:50:37.644Z,99651.56
2019-02-25T22:53:11.151Z,99652.06
2019-02-25T22:55:44.830Z,99657.20
2019-02-25T22:58:17.085Z,99661.69
2019-02-25T23:00:58.259Z,99667.42
2019-02-25T23:03:28.912Z,99663.31
2019-02-25T23:06:00.843Z,99663.33
2019-02-25T23:08:32.903Z,99667.98
2019-02-25T23:11:05.083Z,99668.69
2019-02-25T23:13:37.021Z,99662.58
2019-02-25T23:16:10.252Z,99666.67
2019-02-25T23:18:42.193Z,99671.42
2019-02-25T23:21:23.222Z,99668.06
2019-02-25T23:23:51.253Z,99661.45
2019-02-25T23:26:21.692Z,99665.47
2019-02-25T23:28:55.450Z,99665.16
2019-02-25T23:31:29.750Z,99664.31
2019-02-25T23:34:00.893Z,99665.59
2019-02-25T23:36:32.849Z,99663.52
2019-02-25T23:39:06.921Z,99654.67
2019-02-25T23:41:39.496Z,99654.48
2019-02-25T23:44:13.278Z,99645.69
2019-02-25T23:46:46.155Z,99638.64
2019-02-25T23:49:26.867Z,99628.72
2019-02-25T23:51:51.754Z,99631.17
2019-02-25T23:54:25.547Z,99637.60
2019-02-25T23:56:59.633Z,99635.97
2019-02-25T23:59:30.975Z,99637.74
